createdAt,value
2022-08-16T00:02:35.854Z,19.46
2022-08-16T00:17:56.379Z,20.42
2022-08-16T00:32:59.383Z,19.71
2022-08-16T00:48:02.823Z,20.72
2022-08-16T01:03:30.149Z,20.54
2022-08-16T01:18:44.979Z,21.00
2022-08-16T01:33:46.528Z,19.42
2022-08-16T01:48:55.864Z,20.24
2022-08-16T02:03:58.567Z,19.57
2022-08-16T02:19:16.014Z,20.17
2022-08-16T02:34:19.809Z,20.96
2022-08-16T02:50:52.113Z,20.36
2022-08-16T03:04:55.927Z,20.66
2022-08-16T03:20:00.205Z,19.86
2022-08-16T03:35:05.173Z,20.02
2022-08-16T03:50:25.662Z,20.51
2022-08-16T04:05:28.092Z,19.81
2022-08-16T04:20:34.036Z,20.34
2022-08-16T04:35:39.520Z,21.45
2022-08-16T04:50:43.715Z,21.50
2022-08-16T05:05:59.614Z,24.50
2022-08-16T05:21:09.627Z,25.63
2022-08-16T05:36:14.546Z,26.96
2022-08-16T05:51:38.822Z,24.80
2022-08-16T06:06:39.973Z,26.93
2022-08-16T06:21:41.739Z,27.89
2022-08-16T06:36:43.353Z,28.36
2022-08-16T06:51:50.958Z,28.46
2022-08-16T07:06:54.380Z,29.59
2022-08-16T07:21:59.830Z,31.45
2022-08-16T07:37:04.412Z,30.25
2022-08-16T07:52:18.643Z,31.04
2022-08-16T08:07:22.005Z,30.91
2022-08-16T08:22:29.054Z,30.68
2022-08-16T08:37:41.729Z,31.40
2022-08-16T08:52:53.893Z,34.37
2022-08-16T09:08:01.595Z,35.66
2022-08-16T09:23:07.541Z,35.08
2022-08-16T09:38:10.021Z,36.13
2022-08-16T09:53:16.679Z,35.76
2022-08-16T10:08:25.420Z,34.75
2022-08-16T10:23:29.709Z,36.60
2022-08-16T10:38:33.035Z,36.13
2022-08-16T10:53:35.772Z,35.65
2022-08-16T11:08:45.463Z,35.72
2022-08-16T11:23:57.845Z,36.32
2022-08-16T11:39:00.811Z,34.89
2022-08-16T11:54:05.160Z,31.24
2022-08-16T12:09:10.471Z,30.17
2022-08-16T12:24:14.010Z,30.46
2022-08-16T12:39:20.501Z,32.16
2022-08-16T12:54:23.586Z,31.49
2022-08-16T13:09:26.790Z,31.68
2022-08-16T13:24:30.439Z,33.22
2022-08-16T13:39:32.895Z,32.00
2022-08-16T13:54:34.703Z,32.33
2022-08-16T14:09:36.921Z,32.22
2022-08-16T14:24:38.910Z,30.80
2022-08-16T14:39:41.468Z,29.91
2022-08-16T14:54:43.928Z,30.36
2022-08-16T15:10:01.064Z,30.43
2022-08-16T15:25:30.147Z,29.68
2022-08-16T15:40:35.378Z,29.77
2022-08-16T15:55:37.507Z,29.16
2022-08-16T16:10:39.891Z,28.37
2022-08-16T16:25:44.670Z,27.56
2022-08-16T16:40:53.812Z,27.49
2022-08-16T16:55:55.986Z,26.93
2022-08-16T17:10:59.751Z,27.14
2022-08-16T17:26:01.500Z,26.59
2022-08-16T17:41:03.878Z,26.62
2022-08-16T17:56:10.438Z,26.25
2022-08-16T18:11:13.427Z,25.85
2022-08-16T18:26:15.138Z,25.08
2022-08-16T18:41:17.165Z,25.44
2022-08-16T18:56:18.681Z,25.20
2022-08-16T19:11:23.248Z,24.98
2022-08-16T19:26:26.340Z,24.57
2022-08-16T19:41:28.144Z,24.66
2022-08-16T19:56:29.787Z,24.34
2022-08-16T20:11:31.674Z,24.53
2022-08-16T20:26:34.808Z,24.73
2022-08-16T20:41:36.427Z,24.79
2022-08-16T20:56:38.044Z,24.39
2022-08-16T21:11:40.776Z,23.71
2022-08-16T21:26:47.386Z,23.72
2022-08-16T21:41:57.904Z,23.64
2022-08-16T21:56:59.945Z,22.70
2022-08-16T22:16:07.854Z,23.31
2022-08-16T22:31:10.817Z,22.91
2022-08-16T22:46:12.409Z,23.06
2022-08-16T23:01:14.588Z,22.35
2022-08-16T23:16:16.321Z,22.37
2022-08-16T23:31:18.070Z,21.91
2022-08-16T23:46:19.768Z,22.27
